Time;durP1;ratioP1;P1;durP2;ratioP2;P2;SDS_P1;SDS_P2;PMS_P1;PMS_P2;Temp;Humidity;BMP_temperature;BMP_pressure;BME280_temperature;BME280_humidity;BME280_pressure;Samples;Min_cycle;Max_cycle;Signal;HPM_P1;HPM_P2
2022/03/26 03:22:53;;;;;;;0.20;0.10;;;13.20;99.90;;;;;;20859922;28;20214;-69
2022/03/26 03:32:57;;;;;;;0.20;0.10;;;13.30;99.90;;;;;;20894078;28;20466;-70
2022/03/26 03:43:02;;;;;;;0.20;0.10;;;13.10;99.90;;;;;;20879232;28;20202;-68
2022/03/26 03:53:08;;;;;;;0.20;0.10;;;13.10;99.90;;;;;;20880626;28;20225;-74
2022/03/26 04:03:16;;;;;;;0.20;0.10;;;13.20;99.90;;;;;;20878073;28;20209;-78
2022/03/26 04:13:20;;;;;;;0.30;0.30;;;13.10;99.90;;;;;;20877269;28;20244;-69
2022/03/26 04:23:26;;;;;;;0.20;0.10;;;13.10;99.90;;;;;;20886171;28;20236;-69
2022/03/26 04:33:29;;;;;;;0.20;0.10;;;13.10;99.90;;;;;;20894353;28;20226;-68
2022/03/26 04:43:35;;;;;;;0.20;0.10;;;13.00;99.90;;;;;;20809171;28;20206;-68
2022/03/26 04:53:38;;;;;;;0.20;0.10;;;13.10;99.90;;;;;;20808967;28;20237;-68
2022/03/26 05:03:43;;;;;;;0.20;0.10;;;13.00;99.90;;;;;;20808938;28;20202;-64
2022/03/26 05:13:47;;;;;;;0.20;0.10;;;13.00;99.90;;;;;;20808662;28;20317;-64
2022/03/26 05:23:52;;;;;;;0.20;0.10;;;13.10;99.90;;;;;;20823940;28;20221;-63
2022/03/26 05:33:58;;;;;;;0.20;0.10;;;12.90;99.90;;;;;;20970069;28;20225;-64
2022/03/26 05:44:05;;;;;;;0.20;0.10;;;12.80;99.90;;;;;;20970449;28;20212;-64
2022/03/26 05:54:09;;;;;;;0.20;0.10;;;12.70;99.90;;;;;;20969080;28;20248;-63
2022/03/26 06:04:14;;;;;;;0.20;0.10;;;12.70;99.90;;;;;;20969876;28;20263;-63
2022/03/26 06:14:18;;;;;;;0.20;0.10;;;12.70;99.90;;;;;;20967566;28;20245;-63
2022/03/26 06:24:23;;;;;;;0.20;0.10;;;12.70;99.90;;;;;;20954850;28;20508;-63
2022/03/26 06:34:27;;;;;;;0.20;0.10;;;12.80;99.90;;;;;;20867043;28;20233;-64
2022/03/26 06:44:32;;;;;;;0.20;0.20;;;12.80;99.90;;;;;;20809147;28;20195;-64
2022/03/26 06:54:36;;;;;;;0.20;0.10;;;12.90;99.90;;;;;;20798558;28;20626;-64
2022/03/26 07:04:41;;;;;;;0.20;0.10;;;13.00;99.90;;;;;;20800189;28;20199;-64
2022/03/26 07:14:45;;;;;;;0.20;0.10;;;13.10;99.90;;;;;;20798068;28;20234;-63
2022/03/26 07:24:50;;;;;;;0.20;0.20;;;13.00;99.90;;;;;;20828797;28;20221;-65
2022/03/26 07:34:55;;;;;;;0.20;0.10;;;12.90;99.90;;;;;;20960621;28;20229;-64
2022/03/26 07:45:00;;;;;;;0.30;0.30;;;13.20;99.90;;;;;;20958411;28;20201;-66
2022/03/26 07:55:04;;;;;;;0.67;0.67;;;13.50;99.90;;;;;;20939181;28;20225;-65
2022/03/26 08:05:10;;;;;;;0.20;0.10;;;13.50;99.90;;;;;;20937079;28;20216;-62
2022/03/26 08:15:13;;;;;;;0.20;0.20;;;13.70;99.90;;;;;;20957220;28;20519;-63
2022/03/26 08:35:38;;;;;;;8.50;7.73;;;13.90;99.90;;;;;;20852515;28;20257;-65
2022/03/26 08:45:43;;;;;;;0.20;0.10;;;14.10;99.90;;;;;;20796042;28;20201;-64
2022/03/26 08:55:47;;;;;;;0.20;0.10;;;14.30;99.90;;;;;;20848780;28;20226;-67
2022/03/26 09:05:54;;;;;;;0.20;0.10;;;14.50;99.90;;;;;;20828422;28;20198;-64
2022/03/26 09:15:58;;;;;;;0.20;0.10;;;14.60;99.90;;;;;;20961128;28;20265;-64
2022/03/26 09:26:04;;;;;;;0.20;0.10;;;14.60;99.90;;;;;;20969250;28;20218;-62
2022/03/26 09:36:08;;;;;;;0.20;0.10;;;14.60;99.90;;;;;;20946248;28;20233;-62
2022/03/26 09:46:14;;;;;;;0.20;0.10;;;14.80;99.90;;;;;;20868772;28;20217;-63
2022/03/26 09:56:18;;;;;;;0.27;0.27;;;15.10;99.90;;;;;;20835456;28;20229;-62
2022/03/26 10:06:26;;;;;;;0.20;0.00;;;15.20;99.90;;;;;;20817616;28;20209;-64
2022/03/26 10:16:30;;;;;;;0.20;0.10;;;15.20;99.90;;;;;;20873271;28;20240;-63
2022/03/26 10:26:36;;;;;;;0.20;0.10;;;15.30;99.90;;;;;;20823054;28;20217;-63
2022/03/26 10:36:42;;;;;;;0.20;0.10;;;15.30;99.90;;;;;;20811649;28;20222;-62
2022/03/26 10:46:49;;;;;;;0.20;0.00;;;15.20;99.90;;;;;;20874105;28;20212;-61
2022/03/26 10:56:54;;;;;;;0.20;0.10;;;15.40;99.90;;;;;;20859838;28;20281;-80
2022/03/26 11:07:00;;;;;;;0.20;0.10;;;15.70;99.90;;;;;;20861987;28;20194;-70
2022/03/26 11:17:19;;;;;;;0.20;0.00;;;15.40;99.90;;;;;;20875541;28;20226;-69
2022/03/26 11:27:35;;;;;;;0.20;0.10;;;15.20;99.90;;;;;;20872810;28;20237;-68
2022/03/26 11:37:52;;;;;;;0.20;0.10;;;14.60;99.90;;;;;;20839105;28;20234;-71
2022/03/26 11:58:26;;;;;;;0.20;0.10;;;13.90;99.90;;;;;;20818537;28;20222;-69
2022/03/26 12:08:39;;;;;;;0.20;0.10;;;13.80;99.90;;;;;;20823338;28;21131;-76
2022/03/26 12:18:44;;;;;;;0.20;0.10;;;14.10;99.90;;;;;;20830995;28;20236;-80
2022/03/26 12:28:53;;;;;;;0.20;0.00;;;14.20;99.90;;;;;;20854163;28;20236;-79
2022/03/26 12:38:57;;;;;;;0.20;0.10;;;14.40;99.90;;;;;;20848963;28;20241;-73
2022/03/26 12:49:07;;;;;;;0.20;0.20;;;14.90;99.90;;;;;;20829281;28;20198;-79
2022/03/26 12:59:13;;;;;;;0.20;0.10;;;14.90;99.90;;;;;;20893396;28;20281;-79
2022/03/26 13:09:19;;;;;;;0.20;0.10;;;15.10;99.90;;;;;;20893960;28;20213;-75
2022/03/26 13:19:23;;;;;;;0.20;0.10;;;14.80;99.90;;;;;;20891612;28;20285;-76
2022/03/26 13:29:29;;;;;;;0.20;0.10;;;14.70;99.90;;;;;;20875638;28;20214;-78
2022/03/26 13:39:33;;;;;;;0.20;0.10;;;14.80;99.90;;;;;;20858106;28;20284;-77
2022/03/26 13:49:38;;;;;;;0.20;0.10;;;14.80;99.90;;;;;;20844700;28;20657;-78
2022/03/26 13:59:47;;;;;;;0.20;0.10;;;14.90;99.90;;;;;;20828348;28;20232;-78
2022/03/26 14:09:55;;;;;;;0.20;0.10;;;15.00;99.90;;;;;;20860517;28;20198;-80
2022/03/26 14:19:59;;;;;;;0.20;0.10;;;15.10;99.90;;;;;;20886812;28;20234;-77
2022/03/26 14:30:06;;;;;;;0.20;0.10;;;15.10;99.90;;;;;;20884379;28;20234;-69
2022/03/26 14:40:10;;;;;;;0.20;0.10;;;15.10;99.90;;;;;;20847043;28;20222;-69
2022/03/26 14:50:15;;;;;;;0.20;0.10;;;15.30;99.90;;;;;;20798574;28;20199;-70
2022/03/26 15:00:19;;;;;;;0.20;0.10;;;15.10;99.90;;;;;;20784861;28;20385;-70
2022/03/26 15:10:25;;;;;;;0.20;0.10;;;15.10;99.90;;;;;;20797766;28;20198;-70
2022/03/26 15:20:29;;;;;;;0.20;0.10;;;15.10;99.90;;;;;;20800817;28;20238;-71
2022/03/26 15:30:34;;;;;;;0.20;0.10;;;15.20;99.90;;;;;;20796712;28;20226;-70
2022/03/26 15:40:38;;;;;;;0.20;0.10;;;14.80;99.90;;;;;;20838408;28;20240;-71
2022/03/26 15:50:44;;;;;;;1.23;1.23;;;14.70;99.90;;;;;;20877251;28;20198;-70
2022/03/26 16:00:48;;;;;;;0.20;0.10;;;14.80;99.90;;;;;;20876355;28;20256;-70
2022/03/26 16:10:54;;;;;;;0.20;0.10;;;14.70;99.90;;;;;;20877123;28;20236;-68
2022/03/26 16:20:57;;;;;;;0.20;0.10;;;14.80;99.90;;;;;;20824374;28;20278;-70
2022/03/26 16:31:03;;;;;;;0.20;0.10;;;14.50;99.90;;;;;;20791017;28;20236;-71
2022/03/26 16:41:06;;;;;;;0.20;0.10;;;14.70;99.90;;;;;;20852717;28;20237;-76
2022/03/26 16:51:12;;;;;;;0.40;0.40;;;14.40;99.90;;;;;;20889109;28;20199;-78
2022/03/26 17:01:16;;;;;;;0.20;0.10;;;14.30;99.90;;;;;;20844465;28;20245;-77
2022/03/26 17:11:21;;;;;;;0.20;0.07;;;14.10;99.90;;;;;;20888764;28;20210;-77
2022/03/26 17:21:25;;;;;;;0.20;0.10;;;14.00;99.90;;;;;;20874503;28;20234;-71
2022/03/26 17:31:30;;;;;;;0.20;0.10;;;13.90;99.90;;;;;;20883350;28;20225;-70
2022/03/26 17:41:34;;;;;;;0.20;0.10;;;13.80;99.90;;;;;;20835080;28;20226;-66
2022/03/26 17:51:39;;;;;;;0.20;0.10;;;13.70;99.90;;;;;;20865146;28;20202;-64
2022/03/26 18:01:43;;;;;;;0.20;0.10;;;13.80;99.90;;;;;;20883019;28;20226;-64
2022/03/26 18:11:48;;;;;;;0.20;0.10;;;13.90;99.90;;;;;;20883669;28;20240;-65
2022/03/26 18:21:52;;;;;;;0.20;0.10;;;13.60;99.90;;;;;;20864658;28;20471;-65
2022/03/26 18:31:57;;;;;;;0.20;0.10;;;13.50;99.90;;;;;;20873094;28;20242;-64
2022/03/26 18:42:01;;;;;;;0.20;0.10;;;13.40;99.90;;;;;;20828823;28;20226;-64
2022/03/26 18:52:06;;;;;;;0.20;0.10;;;13.50;99.90;;;;;;20798162;28;20195;-64
2022/03/26 19:02:17;;;;;;;0.20;0.10;;;13.40;99.90;;;;;;20924044;28;20301;-64
2022/03/26 19:12:23;;;;;;;0.20;0.10;;;13.30;99.90;;;;;;20962062;28;20233;-63
2022/03/26 19:22:26;;;;;;;0.47;0.40;;;13.30;99.90;;;;;;20964197;28;20228;-66
2022/03/26 19:32:32;;;;;;;0.20;0.10;;;13.20;99.90;;;;;;20865515;28;20306;-64
2022/03/26 19:42:36;;;;;;;0.20;0.10;;;13.10;99.90;;;;;;20854954;28;20230;-64
2022/03/26 19:52:41;;;;;;;6.50;3.73;;;13.20;99.90;;;;;;20878032;28;20213;-66
2022/03/26 20:02:45;;;;;;;0.20;0.10;;;13.10;99.90;;;;;;20876983;28;20230;-66
2022/03/26 20:12:51;;;;;;;0.20;0.10;;;13.10;99.90;;;;;;20878775;28;20226;-66
2022/03/26 20:22:54;;;;;;;0.20;0.10;;;13.20;99.90;;;;;;20921517;28;20233;-66
2022/03/26 20:33:00;;;;;;;0.20;0.10;;;13.20;99.90;;;;;;20947178;28;20205;-65
2022/03/26 20:43:03;;;;;;;0.20;0.10;;;13.20;99.90;;;;;;20898319;28;20226;-63
2022/03/26 20:53:12;;;;;;;0.20;0.10;;;13.20;99.90;;;;;;20878745;28;20212;-63
2022/03/26 21:03:15;;;;;;;0.20;0.10;;;13.10;99.90;;;;;;20864550;28;20226;-63
2022/03/26 21:13:21;;;;;;;0.20;0.10;;;13.00;99.90;;;;;;20893812;28;20202;-80
2022/03/26 21:23:24;;;;;;;0.20;0.10;;;13.00;99.90;;;;;;20893186;28;20325;-75
2022/03/26 21:33:30;;;;;;;0.20;0.10;;;12.80;99.90;;;;;;20892499;28;20202;-68
2022/03/26 21:43:34;;;;;;;0.20;0.20;;;12.80;99.90;;;;;;20824515;28;20234;-70
2022/03/26 21:53:39;;;;;;;0.20;0.10;;;12.80;99.90;;;;;;20808048;28;20259;-69
2022/03/26 22:03:43;;;;;;;0.20;0.10;;;12.90;99.90;;;;;;20808354;28;20187;-69
2022/03/26 22:13:48;;;;;;;0.20;0.10;;;12.80;99.90;;;;;;20805408;28;20249;-69
2022/03/26 22:23:52;;;;;;;0.20;0.10;;;12.20;99.90;;;;;;20806643;28;20227;-68
2022/03/26 22:33:57;;;;;;;0.20;0.10;;;11.60;99.90;;;;;;20804378;28;20213;-68
2022/03/26 22:44:02;;;;;;;0.20;0.10;;;11.50;99.90;;;;;;20874347;28;20297;-68
2022/03/26 22:54:07;;;;;;;0.20;0.10;;;11.90;99.90;;;;;;20885586;28;20209;-69
2022/03/26 23:04:11;;;;;;;0.20;0.10;;;12.00;99.90;;;;;;20885000;28;20208;-68
2022/03/26 23:14:17;;;;;;;0.20;0.10;;;12.10;99.90;;;;;;20882876;28;20222;-69
2022/03/26 23:24:21;;;;;;;0.20;0.10;;;12.30;99.90;;;;;;20864895;28;20277;-69
2022/03/26 23:34:26;;;;;;;0.20;0.10;;;12.40;99.90;;;;;;20884382;28;20334;-69
2022/03/26 23:44:30;;;;;;;0.20;0.10;;;12.40;99.90;;;;;;20811389;28;20701;-67
2022/03/26 23:54:36;;;;;;;0.20;0.10;;;12.50;99.90;;;;;;20801007;28;20234;-68
